sensor_id;sensor_type;location;lat;lon;timestamp;temperature;humidity
26745;DHT22;14342;50.960;13.880;2023-04-26T13:31:47;8.90;98.20
26745;DHT22;14342;50.960;13.880;2023-04-26T13:32:49;8.90;97.60
26745;DHT22;14342;50.960;13.880;2023-04-26T13:33:51;9.00;99.00
26745;DHT22;14342;50.960;13.880;2023-04-26T13:34:52;9.20;96.20
26745;DHT22;14342;50.960;13.880;2023-04-26T13:35:54;9.20;93.50
26745;DHT22;14342;50.960;13.880;2023-04-26T13:36:55;9.30;94.20
26745;DHT22;14342;50.960;13.880;2023-04-26T13:37:57;9.30;91.80
26745;DHT22;14342;50.960;13.880;2023-04-26T13:38:57;9.30;92.70
26745;DHT22;14342;50.960;13.880;2023-04-26T13:39:59;9.30;89.90
26745;DHT22;14342;50.960;13.880;2023-04-26T13:41:00;9.40;91.60
26745;DHT22;14342;50.960;13.880;2023-04-26T13:42:02;9.50;91.80
26745;DHT22;14342;50.960;13.880;2023-04-26T13:43:04;9.50;91.50
26745;DHT22;14342;50.960;13.880;2023-04-26T13:44:06;9.50;92.20
26745;DHT22;14342;50.960;13.880;2023-04-26T13:45:07;9.50;94.40
26745;DHT22;14342;50.960;13.880;2023-04-26T13:46:09;9.60;96.40
26745;DHT22;14342;50.960;13.880;2023-04-26T13:47:11;9.70;93.70
26745;DHT22;14342;50.960;13.880;2023-04-26T13:48:13;9.70;93.70
26745;DHT22;14342;50.960;13.880;2023-04-26T13:49:14;9.70;94.30
26745;DHT22;14342;50.960;13.880;2023-04-26T13:50:16;9.70;94.00
26745;DHT22;14342;50.960;13.880;2023-04-26T13:51:18;9.70;92.60
26745;DHT22;14342;50.960;13.880;2023-04-26T13:52:18;9.80;92.70
26745;DHT22;14342;50.960;13.880;2023-04-26T13:53:21;9.90;95.10
26745;DHT22;14342;50.960;13.880;2023-04-26T13:54:21;10.10;92.90
26745;DHT22;14342;50.960;13.880;2023-04-26T13:55:25;10.20;92.80
26745;DHT22;14342;50.960;13.880;2023-04-26T13:56:25;10.30;92.70
26745;DHT22;14342;50.960;13.880;2023-04-26T13:57:27;10.50;93.10
26745;DHT22;14342;50.960;13.880;2023-04-26T13:58:28;10.60;91.60
26745;DHT22;14342;50.960;13.880;2023-04-26T13:59:29;10.60;92.60
26745;DHT22;14342;50.960;13.880;2023-04-26T14:00:30;10.70;94.10
26745;DHT22;14342;50.960;13.880;2023-04-26T14:01:32;10.70;91.20
26745;DHT22;14342;50.960;13.880;2023-04-26T14:02:35;10.70;92.00
26745;DHT22;14342;50.960;13.880;2023-04-26T14:03:36;10.50;88.50
26745;DHT22;14342;50.960;13.880;2023-04-26T14:04:37;10.30;88.90
26745;DHT22;14342;50.960;13.880;2023-04-26T14:05:39;10.20;88.90
26745;DHT22;14342;50.960;13.880;2023-04-26T14:06:40;10.20;90.10
26745;DHT22;14342;50.960;13.880;2023-04-26T14:07:41;10.30;91.20
26745;DHT22;14342;50.960;13.880;2023-04-26T14:08:42;10.30;90.80
26745;DHT22;14342;50.960;13.880;2023-04-26T14:09:44;10.30;90.80
26745;DHT22;14342;50.960;13.880;2023-04-26T14:10:45;10.20;87.20
26745;DHT22;14342;50.960;13.880;2023-04-26T14:11:47;10.00;87.80
26745;DHT22;14342;50.960;13.880;2023-04-26T14:12:47;9.90;90.10
26745;DHT22;14342;50.960;13.880;2023-04-26T14:13:49;9.80;89.60
26745;DHT22;14342;50.960;13.880;2023-04-26T14:14:50;9.60;90.90
26745;DHT22;14342;50.960;13.880;2023-04-26T14:15:51;9.60;91.30
26745;DHT22;14342;50.960;13.880;2023-04-26T14:16:52;9.60;90.50
26745;DHT22;14342;50.960;13.880;2023-04-26T14:17:54;9.50;90.10
26745;DHT22;14342;50.960;13.880;2023-04-26T14:18:55;9.40;89.80
26745;DHT22;14342;50.960;13.880;2023-04-26T14:19:57;9.40;90.70
26745;DHT22;14342;50.960;13.880;2023-04-26T14:20:57;9.30;90.70
26745;DHT22;14342;50.960;13.880;2023-04-26T14:21:59;9.30;91.60
26745;DHT22;14342;50.960;13.880;2023-04-26T14:23:00;9.40;91.30
26745;DHT22;14342;50.960;13.880;2023-04-26T14:24:01;9.40;91.60
26745;DHT22;14342;50.960;13.880;2023-04-26T14:25:02;9.50;92.50
26745;DHT22;14342;50.960;13.880;2023-04-26T14:26:04;9.50;92.80
26745;DHT22;14342;50.960;13.880;2023-04-26T14:27:05;9.60;93.20
26745;DHT22;14342;50.960;13.880;2023-04-26T14:28:06;9.70;91.70
26745;DHT22;14342;50.960;13.880;2023-04-26T14:29:07;9.70;90.40
26745;DHT22;14342;50.960;13.880;2023-04-26T14:30:09;9.70;90.90
26745;DHT22;14342;50.960;13.880;2023-04-26T14:31:09;9.80;91.10
26745;DHT22;14342;50.960;13.880;2023-04-26T14:32:12;9.80;91.80
26745;DHT22;14342;50.960;13.880;2023-04-26T14:33:15;9.90;92.70
26745;DHT22;14342;50.960;13.880;2023-04-26T14:34:15;9.90;90.40
26745;DHT22;14342;50.960;13.880;2023-04-26T14:35:17;10.00;91.00
26745;DHT22;14342;50.960;13.880;2023-04-26T14:36:19;9.90;90.20
26745;DHT22;14342;50.960;13.880;2023-04-26T14:37:20;9.80;90.30
26745;DHT22;14342;50.960;13.880;2023-04-26T14:38:21;9.70;90.50
26745;DHT22;14342;50.960;13.880;2023-04-26T14:39:23;9.80;90.60
26745;DHT22;14342;50.960;13.880;2023-04-26T14:40:24;9.60;90.00
26745;DHT22;14342;50.960;13.880;2023-04-26T14:41:25;9.70;91.30
26745;DHT22;14342;50.960;13.880;2023-04-26T14:42:27;9.60;91.00
26745;DHT22;14342;50.960;13.880;2023-04-26T14:43:27;9.60;90.50
26745;DHT22;14342;50.960;13.880;2023-04-26T14:44:29;9.60;90.50
26745;DHT22;14342;50.960;13.880;2023-04-26T14:45:29;9.60;91.90
26745;DHT22;14342;50.960;13.880;2023-04-26T14:46:33;9.70;91.80
26745;DHT22;14342;50.960;13.880;2023-04-26T14:47:34;9.70;91.20
26745;DHT22;14342;50.960;13.880;2023-04-26T14:48:36;9.70;92.60
26745;DHT22;14342;50.960;13.880;2023-04-26T14:49:38;9.80;91.60
26745;DHT22;14342;50.960;13.880;2023-04-26T14:50:38;9.80;91.20
26745;DHT22;14342;50.960;13.880;2023-04-26T14:51:40;9.90;92.60
26745;DHT22;14342;50.960;13.880;2023-04-26T14:52:41;10.00;91.80
26745;DHT22;14342;50.960;13.880;2023-04-26T14:53:42;10.10;91.50
26745;DHT22;14342;50.960;13.880;2023-04-26T14:54:43;10.20;90.30
26745;DHT22;14342;50.960;13.880;2023-04-26T14:55:44;10.20;90.70
26745;DHT22;14342;50.960;13.880;2023-04-26T14:56:46;10.00;90.20
26745;DHT22;14342;50.960;13.880;2023-04-26T14:57:46;10.00;89.50
26745;DHT22;14342;50.960;13.880;2023-04-26T14:58:48;9.90;91.00
26745;DHT22;14342;50.960;13.880;2023-04-26T14:59:49;9.90;90.70
26745;DHT22;14342;50.960;13.880;2023-04-26T15:00:50;9.80;90.50
26745;DHT22;14342;50.960;13.880;2023-04-26T15:01:52;9.70;91.10
26745;DHT22;14342;50.960;13.880;2023-04-26T15:02:53;9.60;91.40
26745;DHT22;14342;50.960;13.880;2023-04-26T15:03:55;9.60;92.10
26745;DHT22;14342;50.960;13.880;2023-04-26T15:04:57;9.60;92.60
26745;DHT22;14342;50.960;13.880;2023-04-26T15:05:58;9.60;92.60
26745;DHT22;14342;50.960;13.880;2023-04-26T15:06:59;9.40;93.90
26745;DHT22;14342;50.960;13.880;2023-04-26T15:08:00;9.40;93.80
26745;DHT22;14342;50.960;13.880;2023-04-26T15:09:03;9.30;92.90
26745;DHT22;14342;50.960;13.880;2023-04-26T15:10:07;9.40;93.80
26745;DHT22;14342;50.960;13.880;2023-04-26T15:11:09;9.40;93.50
26745;DHT22;14342;50.960;13.880;2023-04-26T15:12:11;9.40;92.70
26745;DHT22;14342;50.960;13.880;2023-04-26T15:13:11;9.30;93.50
26745;DHT22;14342;50.960;13.880;2023-04-26T15:14:13;9.40;94.40
26745;DHT22;14342;50.960;13.880;2023-04-26T15:15:13;9.40;93.10
26745;DHT22;14342;50.960;13.880;2023-04-26T15:16:15;9.60;93.40
26745;DHT22;14342;50.960;13.880;2023-04-26T15:17:16;9.30;94.00
26745;DHT22;14342;50.960;13.880;2023-04-26T15:18:17;9.50;93.70
26745;DHT22;14342;50.960;13.880;2023-04-26T15:19:20;9.40;93.20
26745;DHT22;14342;50.960;13.880;2023-04-26T15:20:21;9.40;93.60
26745;DHT22;14342;50.960;13.880;2023-04-26T15:21:23;9.40;93.20
26745;DHT22;14342;50.960;13.880;2023-04-26T15:22:26;9.40;93.50
26745;DHT22;14342;50.960;13.880;2023-04-26T15:23:26;9.30;92.90
26745;DHT22;14342;50.960;13.880;2023-04-26T15:24:28;9.20;93.90
26745;DHT22;14342;50.960;13.880;2023-04-26T15:25:28;9.20;94.20
26745;DHT22;14342;50.960;13.880;2023-04-26T15:26:30;9.10;93.80
26745;DHT22;14342;50.960;13.880;2023-04-26T15:27:32;9.20;93.50
26745;DHT22;14342;50.960;13.880;2023-04-26T15:28:34;9.00;93.20
26745;DHT22;14342;50.960;13.880;2023-04-26T15:29:35;9.30;94.10
26745;DHT22;14342;50.960;13.880;2023-04-26T15:30:36;9.20;94.20
26745;DHT22;14342;50.960;13.880;2023-04-26T15:31:38;9.20;94.00
26745;DHT22;14342;50.960;13.880;2023-04-26T15:32:38;9.10;94.20
26745;DHT22;14342;50.960;13.880;2023-04-26T15:33:40;9.10;94.10
26745;DHT22;14342;50.960;13.880;2023-04-26T15:34:42;9.00;93.30
26745;DHT22;14342;50.960;13.880;2023-04-26T15:35:44;9.20;93.70
26745;DHT22;14342;50.960;13.880;2023-04-26T15:36:44;8.90;93.70
26745;DHT22;14342;50.960;13.880;2023-04-26T15:37:46;9.00;94.70
26745;DHT22;14342;50.960;13.880;2023-04-26T15:38:47;9.00;95.20
26745;DHT22;14342;50.960;13.880;2023-04-26T15:39:48;8.90;94.50
26745;DHT22;14342;50.960;13.880;2023-04-26T15:40:49;9.00;95.10
26745;DHT22;14342;50.960;13.880;2023-04-26T15:41:51;9.00;95.30
26745;DHT22;14342;50.960;13.880;2023-04-26T15:42:52;9.00;96.10
26745;DHT22;14342;50.960;13.880;2023-04-26T15:43:54;9.10;96.40
26745;DHT22;14342;50.960;13.880;2023-04-26T15:44:54;9.10;95.80
26745;DHT22;14342;50.960;13.880;2023-04-26T15:45:56;9.00;94.30
26745;DHT22;14342;50.960;13.880;2023-04-26T15:46:56;8.90;94.60
26745;DHT22;14342;50.960;13.880;2023-04-26T15:47:58;8.80;94.50
26745;DHT22;14342;50.960;13.880;2023-04-26T15:48:59;8.80;94.60
26745;DHT22;14342;50.960;13.880;2023-04-26T15:50:01;8.80;95.20
26745;DHT22;14342;50.960;13.880;2023-04-26T15:51:04;8.90;96.10
26745;DHT22;14342;50.960;13.880;2023-04-26T15:52:04;8.90;96.50
26745;DHT22;14342;50.960;13.880;2023-04-26T15:53:06;8.90;95.70
26745;DHT22;14342;50.960;13.880;2023-04-26T15:54:06;8.90;95.20
26745;DHT22;14342;50.960;13.880;2023-04-26T15:55:08;9.20;96.00
26745;DHT22;14342;50.960;13.880;2023-04-26T15:56:13;9.00;95.20
26745;DHT22;14342;50.960;13.880;2023-04-26T15:57:13;8.80;96.00
26745;DHT22;14342;50.960;13.880;2023-04-26T15:58:15;8.80;95.70
26745;DHT22;14342;50.960;13.880;2023-04-26T15:59:17;8.80;96.30
26745;DHT22;14342;50.960;13.880;2023-04-26T16:00:18;8.80;96.20
26745;DHT22;14342;50.960;13.880;2023-04-26T16:01:20;8.80;95.90
26745;DHT22;14342;50.960;13.880;2023-04-26T16:02:20;8.80;95.90
26745;DHT22;14342;50.960;13.880;2023-04-26T16:03:22;8.80;96.00
26745;DHT22;14342;50.960;13.880;2023-04-26T16:04:23;8.80;96.20
26745;DHT22;14342;50.960;13.880;2023-04-26T16:05:25;8.80;95.90
26745;DHT22;14342;50.960;13.880;2023-04-26T16:06:27;8.90;97.20
26745;DHT22;14342;50.960;13.880;2023-04-26T16:07:27;8.90;95.80
26745;DHT22;14342;50.960;13.880;2023-04-26T16:08:29;9.10;97.30
26745;DHT22;14342;50.960;13.880;2023-04-26T16:09:29;9.00;97.00
26745;DHT22;14342;50.960;13.880;2023-04-26T16:10:31;8.90;96.60
26745;DHT22;14342;50.960;13.880;2023-04-26T16:11:32;8.90;97.20
26745;DHT22;14342;50.960;13.880;2023-04-26T16:12:33;8.90;98.50
26745;DHT22;14342;50.960;13.880;2023-04-26T16:13:36;8.90;97.20
26745;DHT22;14342;50.960;13.880;2023-04-26T16:14:38;8.90;97.70
26745;DHT22;14342;50.960;13.880;2023-04-26T16:15:40;9.00;98.70
26745;DHT22;14342;50.960;13.880;2023-04-26T16:16:40;9.00;97.70
26745;DHT22;14342;50.960;13.880;2023-04-26T16:17:42;8.90;97.40
26745;DHT22;14342;50.960;13.880;2023-04-26T16:18:42;8.90;98.20
26745;DHT22;14342;50.960;13.880;2023-04-26T16:19:44;9.20;98.10
26745;DHT22;14342;50.960;13.880;2023-04-26T16:20:47;9.00;97.40
26745;DHT22;14342;50.960;13.880;2023-04-26T16:21:47;9.00;97.10
26745;DHT22;14342;50.960;13.880;2023-04-26T16:22:49;9.00;97.90
26745;DHT22;14342;50.960;13.880;2023-04-26T16:23:50;9.00;97.60
26745;DHT22;14342;50.960;13.880;2023-04-26T16:24:52;8.90;97.10
26745;DHT22;14342;50.960;13.880;2023-04-26T16:25:53;8.90;97.10
26745;DHT22;14342;50.960;13.880;2023-04-26T16:26:54;8.90;95.80
26745;DHT22;14342;50.960;13.880;2023-04-26T16:27:55;8.90;96.70
26745;DHT22;14342;50.960;13.880;2023-04-26T16:28:57;8.80;95.90
26745;DHT22;14342;50.960;13.880;2023-04-26T16:29:58;8.90;96.40
26745;DHT22;14342;50.960;13.880;2023-04-26T16:30:59;8.60;95.80
26745;DHT22;14342;50.960;13.880;2023-04-26T16:32:01;8.50;95.80
26745;DHT22;14342;50.960;13.880;2023-04-26T16:33:02;8.50;96.30
26745;DHT22;14342;50.960;13.880;2023-04-26T16:34:08;8.60;97.10
26745;DHT22;14342;50.960;13.880;2023-04-26T16:35:10;8.50;96.20
26745;DHT22;14342;50.960;13.880;2023-04-26T16:36:12;8.50;95.90
26745;DHT22;14342;50.960;13.880;2023-04-26T16:37:14;8.50;96.30
26745;DHT22;14342;50.960;13.880;2023-04-26T16:38:16;8.50;96.70
26745;DHT22;14342;50.960;13.880;2023-04-26T16:39:16;8.50;96.60
26745;DHT22;14342;50.960;13.880;2023-04-26T16:40:18;8.40;96.50
26745;DHT22;14342;50.960;13.880;2023-04-26T16:41:21;8.30;96.50
26745;DHT22;14342;50.960;13.880;2023-04-26T16:42:23;8.30;97.10
26745;DHT22;14342;50.960;13.880;2023-04-26T16:43:25;8.30;96.90
26745;DHT22;14342;50.960;13.880;2023-04-26T16:44:26;8.30;97.10
26745;DHT22;14342;50.960;13.880;2023-04-26T16:45:27;8.30;97.50
26745;DHT22;14342;50.960;13.880;2023-04-26T16:46:28;8.20;97.70
26745;DHT22;14342;50.960;13.880;2023-04-26T16:47:30;8.30;97.80
26745;DHT22;14342;50.960;13.880;2023-04-26T16:48:31;8.30;98.10
26745;DHT22;14342;50.960;13.880;2023-04-26T16:49:33;8.60;97.70
26745;DHT22;14342;50.960;13.880;2023-04-26T16:50:33;8.40;98.40
26745;DHT22;14342;50.960;13.880;2023-04-26T16:51:37;8.50;98.30
26745;DHT22;14342;50.960;13.880;2023-04-26T16:52:38;8.50;99.10
26745;DHT22;14342;50.960;13.880;2023-04-26T16:53:39;8.60;99.20
26745;DHT22;14342;50.960;13.880;2023-04-26T16:54:41;8.60;99.10
26745;DHT22;14342;50.960;13.880;2023-04-26T16:55:42;8.60;97.80
26745;DHT22;14342;50.960;13.880;2023-04-26T16:56:43;8.60;98.50
26745;DHT22;14342;50.960;13.880;2023-04-26T16:57:45;8.60;98.10
26745;DHT22;14342;50.960;13.880;2023-04-26T16:58:46;8.60;98.30
26745;DHT22;14342;50.960;13.880;2023-04-26T16:59:47;8.60;99.10
26745;DHT22;14342;50.960;13.880;2023-04-26T17:00:49;8.60;98.20
26745;DHT22;14342;50.960;13.880;2023-04-26T17:01:51;8.70;98.00
26745;DHT22;14342;50.960;13.880;2023-04-26T17:02:53;8.60;96.90
26745;DHT22;14342;50.960;13.880;2023-04-26T17:03:54;8.50;96.30
26745;DHT22;14342;50.960;13.880;2023-04-26T17:04:56;8.70;96.30
26745;DHT22;14342;50.960;13.880;2023-04-26T17:05:56;8.40;96.30
26745;DHT22;14342;50.960;13.880;2023-04-26T17:06:59;8.40;95.90
26745;DHT22;14342;50.960;13.880;2023-04-26T17:08:01;8.40;96.00
26745;DHT22;14342;50.960;13.880;2023-04-26T17:09:01;8.50;95.90
26745;DHT22;14342;50.960;13.880;2023-04-26T17:10:04;8.50;95.90
26745;DHT22;14342;50.960;13.880;2023-04-26T17:11:05;8.40;95.40
26745;DHT22;14342;50.960;13.880;2023-04-26T17:12:07;8.50;95.80
26745;DHT22;14342;50.960;13.880;2023-04-26T17:13:08;8.40;95.80
26745;DHT22;14342;50.960;13.880;2023-04-26T17:14:10;8.40;96.00
26745;DHT22;14342;50.960;13.880;2023-04-26T17:15:12;8.40;95.90
26745;DHT22;14342;50.960;13.880;2023-04-26T17:16:12;8.40;95.30
26745;DHT22;14342;50.960;13.880;2023-04-26T17:17:14;8.40;95.70
26745;DHT22;14342;50.960;13.880;2023-04-26T17:18:15;8.40;96.30
26745;DHT22;14342;50.960;13.880;2023-04-26T17:19:16;8.40;96.10
26745;DHT22;14342;50.960;13.880;2023-04-26T17:20:17;8.40;95.90
26745;DHT22;14342;50.960;13.880;2023-04-26T17:21:18;8.40;96.10
26745;DHT22;14342;50.960;13.880;2023-04-26T17:22:21;8.60;96.50
26745;DHT22;14342;50.960;13.880;2023-04-26T17:23:22;8.50;96.20
26745;DHT22;14342;50.960;13.880;2023-04-26T17:24:24;8.50;96.30
26745;DHT22;14342;50.960;13.880;2023-04-26T17:25:24;8.50;95.60
26745;DHT22;14342;50.960;13.880;2023-04-26T17:26:26;8.50;95.60
26745;DHT22;14342;50.960;13.880;2023-04-26T17:27:28;8.50;95.90
26745;DHT22;14342;50.960;13.880;2023-04-26T17:28:28;8.50;96.30
26745;DHT22;14342;50.960;13.880;2023-04-26T17:29:30;8.50;95.80
26745;DHT22;14342;50.960;13.880;2023-04-26T17:30:31;8.60;96.40
26745;DHT22;14342;50.960;13.880;2023-04-26T17:31:32;8.70;96.70
26745;DHT22;14342;50.960;13.880;2023-04-26T17:32:34;8.60;96.60
26745;DHT22;14342;50.960;13.880;2023-04-26T17:33:34;8.90;96.60
26745;DHT22;14342;50.960;13.880;2023-04-26T17:34:37;8.50;95.90
26745;DHT22;14342;50.960;13.880;2023-04-26T17:35:38;8.60;96.60
26745;DHT22;14342;50.960;13.880;2023-04-26T17:36:39;8.50;97.70
26745;DHT22;14342;50.960;13.880;2023-04-26T17:37:41;8.50;97.70
26745;DHT22;14342;50.960;13.880;2023-04-26T17:38:45;8.50;97.40
26745;DHT22;14342;50.960;13.880;2023-04-26T17:39:47;8.50;96.90
26745;DHT22;14342;50.960;13.880;2023-04-26T17:40:50;8.40;97.60
26745;DHT22;14342;50.960;13.880;2023-04-26T17:41:51;8.40;97.10
26745;DHT22;14342;50.960;13.880;2023-04-26T17:42:52;8.40;97.00
26745;DHT22;14342;50.960;13.880;2023-04-26T17:43:53;8.40;96.60
26745;DHT22;14342;50.960;13.880;2023-04-26T17:44:54;8.40;97.00
26745;DHT22;14342;50.960;13.880;2023-04-26T17:45:56;8.40;96.60
26745;DHT22;14342;50.960;13.880;2023-04-26T17:46:56;8.30;97.00
26745;DHT22;14342;50.960;13.880;2023-04-26T17:47:58;8.30;96.80
26745;DHT22;14342;50.960;13.880;2023-04-26T17:48:58;8.20;96.70
26745;DHT22;14342;50.960;13.880;2023-04-26T17:50:00;8.20;96.70
26745;DHT22;14342;50.960;13.880;2023-04-26T17:51:01;8.20;96.90
26745;DHT22;14342;50.960;13.880;2023-04-26T17:52:02;8.20;97.10
26745;DHT22;14342;50.960;13.880;2023-04-26T17:53:04;8.20;97.80
26745;DHT22;14342;50.960;13.880;2023-04-26T17:54:06;8.20;97.70
26745;DHT22;14342;50.960;13.880;2023-04-26T17:55:08;8.40;97.80
26745;DHT22;14342;50.960;13.880;2023-04-26T17:56:09;8.10;98.60
26745;DHT22;14342;50.960;13.880;2023-04-26T17:57:11;8.20;98.20
26745;DHT22;14342;50.960;13.880;2023-04-26T17:58:11;8.20;98.20
26745;DHT22;14342;50.960;13.880;2023-04-26T17:59:13;8.20;98.60
26745;DHT22;14342;50.960;13.880;2023-04-26T18:00:14;8.30;98.80
26745;DHT22;14342;50.960;13.880;2023-04-26T18:01:15;8.30;98.60
26745;DHT22;14342;50.960;13.880;2023-04-26T18:02:16;8.20;98.40
26745;DHT22;14342;50.960;13.880;2023-04-26T18:03:18;8.20;98.60
26745;DHT22;14342;50.960;13.880;2023-04-26T18:04:20;8.20;98.30
26745;DHT22;14342;50.960;13.880;2023-04-26T18:05:21;8.40;98.80
26745;DHT22;14342;50.960;13.880;2023-04-26T18:06:23;8.20;99.40
26745;DHT22;14342;50.960;13.880;2023-04-26T18:07:26;8.20;99.50
26745;DHT22;14342;50.960;13.880;2023-04-26T18:08:27;8.30;99.10
26745;DHT22;14342;50.960;13.880;2023-04-26T18:09:30;8.30;99.60
26745;DHT22;14342;50.960;13.880;2023-04-26T18:10:30;8.30;99.50
26745;DHT22;14342;50.960;13.880;2023-04-26T18:11:32;8.40;99.20
26745;DHT22;14342;50.960;13.880;2023-04-26T18:12:33;8.40;99.10
26745;DHT22;14342;50.960;13.880;2023-04-26T18:13:35;8.30;98.80
26745;DHT22;14342;50.960;13.880;2023-04-26T18:14:36;8.30;99.50
26745;DHT22;14342;50.960;13.880;2023-04-26T18:15:43;8.30;99.60
26745;DHT22;14342;50.960;13.880;2023-04-26T18:16:45;8.30;99.70
26745;DHT22;14342;50.960;13.880;2023-04-26T18:17:46;8.20;99.50
26745;DHT22;14342;50.960;13.880;2023-04-26T18:18:47;8.20;99.90
26745;DHT22;14342;50.960;13.880;2023-04-26T18:19:48;8.20;99.70
26745;DHT22;14342;50.960;13.880;2023-04-26T18:20:50;8.10;99.70
26745;DHT22;14342;50.960;13.880;2023-04-26T18:21:51;8.10;99.90
26745;DHT22;14342;50.960;13.880;2023-04-26T18:22:52;8.10;99.90
26745;DHT22;14342;50.960;13.880;2023-04-26T18:23:55;8.20;99.90
26745;DHT22;14342;50.960;13.880;2023-04-26T18:24:56;8.10;99.90
26745;DHT22;14342;50.960;13.880;2023-04-26T18:25:58;8.10;99.90
26745;DHT22;14342;50.960;13.880;2023-04-26T18:26:58;8.10;99.90
26745;DHT22;14342;50.960;13.880;2023-04-26T18:28:00;8.20;99.90
26745;DHT22;14342;50.960;13.880;2023-04-26T18:29:00;8.20;99.90
26745;DHT22;14342;50.960;13.880;2023-04-26T18:30:02;8.20;99.90
26745;DHT22;14342;50.960;13.880;2023-04-26T18:31:04;8.10;99.90
26745;DHT22;14342;50.960;13.880;2023-04-26T18:32:04;8.10;99.90
26745;DHT22;14342;50.960;13.880;2023-04-26T18:33:06;8.10;99.90
26745;DHT22;14342;50.960;13.880;2023-04-26T18:34:06;8.10;99.90
26745;DHT22;14342;50.960;13.880;2023-04-26T18:35:10;8.10;99.90
26745;DHT22;14342;50.960;13.880;2023-04-26T18:36:11;8.10;99.90
26745;DHT22;14342;50.960;13.880;2023-04-26T18:37:12;8.00;99.90
26745;DHT22;14342;50.960;13.880;2023-04-26T18:38:13;8.00;99.90
26745;DHT22;14342;50.960;13.880;2023-04-26T18:39:16;8.00;99.90
26745;DHT22;14342;50.960;13.880;2023-04-26T18:40:17;8.30;99.90
26745;DHT22;14342;50.960;13.880;2023-04-26T18:41:18;8.10;99.90
26745;DHT22;14342;50.960;13.880;2023-04-26T18:42:19;8.10;99.90
26745;DHT22;14342;50.960;13.880;2023-04-26T18:43:21;8.20;99.90
26745;DHT22;14342;50.960;13.880;2023-04-26T18:44:21;8.20;99.90
26745;DHT22;14342;50.960;13.880;2023-04-26T18:45:23;8.20;99.90
26745;DHT22;14342;50.960;13.880;2023-04-26T18:46:23;8.20;99.90
26745;DHT22;14342;50.960;13.880;2023-04-26T18:47:25;8.30;99.90
26745;DHT22;14342;50.960;13.880;2023-04-26T18:48:26;8.30;99.90
26745;DHT22;14342;50.960;13.880;2023-04-26T18:49:28;8.40;99.90
26745;DHT22;14342;50.960;13.880;2023-04-26T18:50:30;8.40;99.90
26745;DHT22;14342;50.960;13.880;2023-04-26T18:51:31;8.60;99.90
26745;DHT22;14342;50.960;13.880;2023-04-26T18:52:32;8.80;99.90
26745;DHT22;14342;50.960;13.880;2023-04-26T18:53:34;8.90;99.90
26745;DHT22;14342;50.960;13.880;2023-04-26T18:54:36;9.00;99.90
26745;DHT22;14342;50.960;13.880;2023-04-26T18:55:38;9.10;99.90
26745;DHT22;14342;50.960;13.880;2023-04-26T18:56:39;9.30;99.90
26745;DHT22;14342;50.960;13.880;2023-04-26T18:57:41;9.20;99.90
26745;DHT22;14342;50.960;13.880;2023-04-26T18:58:43;9.20;99.90
26745;DHT22;14342;50.960;13.880;2023-04-26T18:59:43;9.30;99.90
26745;DHT22;14342;50.960;13.880;2023-04-26T19:00:45;9.40;99.90
26745;DHT22;14342;50.960;13.880;2023-04-26T19:01:49;9.40;99.90
26745;DHT22;14342;50.960;13.880;2023-04-26T19:02:50;9.40;99.90
26745;DHT22;14342;50.960;13.880;2023-04-26T19:03:51;9.40;99.90
26745;DHT22;14342;50.960;13.880;2023-04-26T19:04:52;9.40;99.90
26745;DHT22;14342;50.960;13.880;2023-04-26T19:05:54;9.50;99.90
26745;DHT22;14342;50.960;13.880;2023-04-26T19:06:54;9.50;99.90
26745;DHT22;14342;50.960;13.880;2023-04-26T19:07:56;9.50;99.70
26745;DHT22;14342;50.960;13.880;2023-04-26T19:08:57;9.50;99.80
26745;DHT22;14342;50.960;13.880;2023-04-26T19:10:00;9.50;99.70
26745;DHT22;14342;50.960;13.880;2023-04-26T19:11:01;9.50;99.40
26745;DHT22;14342;50.960;13.880;2023-04-26T19:12:03;9.60;99.10
26745;DHT22;14342;50.960;13.880;2023-04-26T19:13:05;9.60;99.10
26745;DHT22;14342;50.960;13.880;2023-04-26T19:14:06;9.60;99.50
26745;DHT22;14342;50.960;13.880;2023-04-26T19:15:07;9.60;99.20
26745;DHT22;14342;50.960;13.880;2023-04-26T19:16:09;9.50;99.90
26745;DHT22;14342;50.960;13.880;2023-04-26T19:17:10;9.40;99.90
26745;DHT22;14342;50.960;13.880;2023-04-26T19:18:11;9.40;99.90
26745;DHT22;14342;50.960;13.880;2023-04-26T19:19:12;9.40;99.90
26745;DHT22;14342;50.960;13.880;2023-04-26T19:20:14;9.40;99.90
26745;DHT22;14342;50.960;13.880;2023-04-26T19:21:14;9.50;99.90
26745;DHT22;14342;50.960;13.880;2023-04-26T19:22:16;9.70;99.90
26745;DHT22;14342;50.960;13.880;2023-04-26T19:23:17;9.70;99.90
26745;DHT22;14342;50.960;13.880;2023-04-26T19:24:18;9.60;99.90
26745;DHT22;14342;50.960;13.880;2023-04-26T19:25:21;9.70;99.90
26745;DHT22;14342;50.960;13.880;2023-04-26T19:26:22;9.70;99.90
26745;DHT22;14342;50.960;13.880;2023-04-26T19:27:24;9.80;99.90
26745;DHT22;14342;50.960;13.880;2023-04-26T19:28:24;9.80;99.90
26745;DHT22;14342;50.960;13.880;2023-04-26T19:29:26;9.80;99.90
26745;DHT22;14342;50.960;13.880;2023-04-26T19:30:26;9.80;99.90
26745;DHT22;14342;50.960;13.880;2023-04-26T19:31:28;9.80;99.90
26745;DHT22;14342;50.960;13.880;2023-04-26T19:32:30;9.80;99.90
26745;DHT22;14342;50.960;13.880;2023-04-26T19:33:31;9.70;99.90
26745;DHT22;14342;50.960;13.880;2023-04-26T19:34:33;9.70;99.90
26745;DHT22;14342;50.960;13.880;2023-04-26T19:35:34;9.70;99.90
26745;DHT22;14342;50.960;13.880;2023-04-26T19:36:35;9.70;99.90
26745;DHT22;14342;50.960;13.880;2023-04-26T19:37:37;9.70;99.90
26745;DHT22;14342;50.960;13.880;2023-04-26T19:38:38;9.70;99.90
26745;DHT22;14342;50.960;13.880;2023-04-26T19:39:40;9.70;99.90
26745;DHT22;14342;50.960;13.880;2023-04-26T19:40:42;9.70;99.90
26745;DHT22;14342;50.960;13.880;2023-04-26T19:41:43;9.70;99.90
26745;DHT22;14342;50.960;13.880;2023-04-26T19:42:44;9.70;99.90
26745;DHT22;14342;50.960;13.880;2023-04-26T19:43:45;9.70;99.90
26745;DHT22;14342;50.960;13.880;2023-04-26T19:44:47;9.70;99.90
26745;DHT22;14342;50.960;13.880;2023-04-26T19:45:48;9.70;99.90
26745;DHT22;14342;50.960;13.880;2023-04-26T19:46:49;9.70;99.90
26745;DHT22;14342;50.960;13.880;2023-04-26T19:47:51;9.70;99.90
26745;DHT22;14342;50.960;13.880;2023-04-26T19:48:52;9.70;99.90
26745;DHT22;14342;50.960;13.880;2023-04-26T19:49:54;9.70;99.90
26745;DHT22;14342;50.960;13.880;2023-04-26T19:50:56;9.60;99.90
26745;DHT22;14342;50.960;13.880;2023-04-26T19:51:59;9.60;99.90
26745;DHT22;14342;50.960;13.880;2023-04-26T19:52:59;9.60;99.90
26745;DHT22;14342;50.960;13.880;2023-04-26T19:54:01;9.60;99.90
26745;DHT22;14342;50.960;13.880;2023-04-26T19:55:01;9.60;99.90
26745;DHT22;14342;50.960;13.880;2023-04-26T19:56:04;9.80;99.90
26745;DHT22;14342;50.960;13.880;2023-04-26T19:57:06;9.60;99.90
26745;DHT22;14342;50.960;13.880;2023-04-26T19:58:07;9.60;99.90
26745;DHT22;14342;50.960;13.880;2023-04-26T19:59:09;9.50;99.90